sensor_id;sensor_type;location;lat;lon;timestamp;P1;durP1;ratioP1;P2;durP2;ratioP2
43224;SDS011;28834;48.720;9.208;2022-10-17T00:01:22;4.37;;;1.80;;
43224;SDS011;28834;48.720;9.208;2022-10-17T00:03:48;8.10;;;1.77;;
43224;SDS011;28834;48.720;9.208;2022-10-17T00:06:13;2.90;;;1.80;;
43224;SDS011;28834;48.720;9.208;2022-10-17T00:08:40;2.20;;;1.50;;
43224;SDS011;28834;48.720;9.208;2022-10-17T00:11:07;4.47;;;1.73;;
43224;SDS011;28834;48.720;9.208;2022-10-17T00:13:37;2.03;;;1.80;;
43224;SDS011;28834;48.720;9.208;2022-10-17T00:16:03;3.63;;;2.00;;
43224;SDS011;28834;48.720;9.208;2022-10-17T00:18:29;5.20;;;2.40;;
43224;SDS011;28834;48.720;9.208;2022-10-17T00:20:55;3.47;;;1.83;;
43224;SDS011;28834;48.720;9.208;2022-10-17T00:23:20;5.20;;;2.20;;
43224;SDS011;28834;48.720;9.208;2022-10-17T00:25:46;2.00;;;1.67;;
43224;SDS011;28834;48.720;9.208;2022-10-17T00:28:12;1.73;;;1.60;;
43224;SDS011;28834;48.720;9.208;2022-10-17T00:30:39;2.50;;;1.90;;
43224;SDS011;28834;48.720;9.208;2022-10-17T00:33:05;3.07;;;1.67;;
43224;SDS011;28834;48.720;9.208;2022-10-17T00:35:31;4.83;;;1.67;;
43224;SDS011;28834;48.720;9.208;2022-10-17T00:37:57;2.10;;;1.87;;
43224;SDS011;28834;48.720;9.208;2022-10-17T00:40:22;1.83;;;1.70;;
43224;SDS011;28834;48.720;9.208;2022-10-17T00:42:48;3.70;;;1.70;;
43224;SDS011;28834;48.720;9.208;2022-10-17T00:45:27;3.30;;;1.63;;
43224;SDS011;28834;48.720;9.208;2022-10-17T00:48:02;2.30;;;1.67;;
43224;SDS011;28834;48.720;9.208;2022-10-17T00:50:32;2.00;;;1.73;;
43224;SDS011;28834;48.720;9.208;2022-10-17T00:53:00;3.53;;;1.90;;
43224;SDS011;28834;48.720;9.208;2022-10-17T00:55:29;2.43;;;1.83;;
43224;SDS011;28834;48.720;9.208;2022-10-17T00:57:59;2.60;;;1.90;;
43224;SDS011;28834;48.720;9.208;2022-10-17T01:00:28;3.20;;;1.90;;
43224;SDS011;28834;48.720;9.208;2022-10-17T01:02:54;3.63;;;1.80;;
43224;SDS011;28834;48.720;9.208;2022-10-17T01:05:19;2.30;;;1.63;;
43224;SDS011;28834;48.720;9.208;2022-10-17T01:07:46;7.70;;;2.27;;
43224;SDS011;28834;48.720;9.208;2022-10-17T01:10:13;2.80;;;2.07;;
43224;SDS011;28834;48.720;9.208;2022-10-17T01:29:31;3.63;;;2.40;;
43224;SDS011;28834;48.720;9.208;2022-10-17T01:32:12;2.63;;;2.23;;
43224;SDS011;28834;48.720;9.208;2022-10-17T01:34:59;2.50;;;2.30;;
43224;SDS011;28834;48.720;9.208;2022-10-17T01:37:34;4.43;;;2.30;;
43224;SDS011;28834;48.720;9.208;2022-10-17T01:40:12;3.80;;;2.63;;
43224;SDS011;28834;48.720;9.208;2022-10-17T01:42:52;2.40;;;2.20;;
43224;SDS011;28834;48.720;9.208;2022-10-17T01:45:24;6.60;;;2.60;;
43224;SDS011;28834;48.720;9.208;2022-10-17T01:47:58;3.50;;;2.20;;
43224;SDS011;28834;48.720;9.208;2022-10-17T01:50:30;6.27;;;2.53;;
43224;SDS011;28834;48.720;9.208;2022-10-17T01:53:01;6.77;;;2.90;;
43224;SDS011;28834;48.720;9.208;2022-10-17T01:55:34;6.20;;;4.00;;
43224;SDS011;28834;48.720;9.208;2022-10-17T01:58:04;3.73;;;2.93;;
43224;SDS011;28834;48.720;9.208;2022-10-17T02:00:34;5.50;;;2.50;;
43224;SDS011;28834;48.720;9.208;2022-10-17T02:03:03;4.80;;;2.37;;
43224;SDS011;28834;48.720;9.208;2022-10-17T02:05:32;5.03;;;2.63;;
43224;SDS011;28834;48.720;9.208;2022-10-17T02:08:01;4.50;;;2.50;;
43224;SDS011;28834;48.720;9.208;2022-10-17T02:21:23;3.50;;;2.50;;
43224;SDS011;28834;48.720;9.208;2022-10-17T02:29:29;3.43;;;2.70;;
43224;SDS011;28834;48.720;9.208;2022-10-17T02:34:33;2.40;;;2.20;;
43224;SDS011;28834;48.720;9.208;2022-10-17T02:37:03;2.80;;;2.53;;
43224;SDS011;28834;48.720;9.208;2022-10-17T02:39:31;1.93;;;1.83;;
43224;SDS011;28834;48.720;9.208;2022-10-17T02:41:58;3.57;;;1.80;;
43224;SDS011;28834;48.720;9.208;2022-10-17T02:44:29;3.00;;;1.83;;
43224;SDS011;28834;48.720;9.208;2022-10-17T02:47:02;4.70;;;2.10;;
43224;SDS011;28834;48.720;9.208;2022-10-17T02:49:35;3.43;;;2.60;;
43224;SDS011;28834;48.720;9.208;2022-10-17T02:52:13;2.40;;;2.20;;
43224;SDS011;28834;48.720;9.208;2022-10-17T02:54:53;2.33;;;2.13;;
43224;SDS011;28834;48.720;9.208;2022-10-17T02:57:30;2.33;;;2.17;;
43224;SDS011;28834;48.720;9.208;2022-10-17T03:00:08;4.37;;;2.10;;
43224;SDS011;28834;48.720;9.208;2022-10-17T03:02:38;2.20;;;2.00;;
43224;SDS011;28834;48.720;9.208;2022-10-17T03:05:12;3.83;;;2.20;;
43224;SDS011;28834;48.720;9.208;2022-10-17T03:07:38;6.10;;;2.23;;
43224;SDS011;28834;48.720;9.208;2022-10-17T03:10:04;4.80;;;2.50;;
43224;SDS011;28834;48.720;9.208;2022-10-17T03:12:30;5.17;;;2.40;;
43224;SDS011;28834;48.720;9.208;2022-10-17T03:14:56;3.73;;;2.00;;
43224;SDS011;28834;48.720;9.208;2022-10-17T03:17:21;3.77;;;2.60;;
43224;SDS011;28834;48.720;9.208;2022-10-17T03:19:47;2.67;;;2.47;;
43224;SDS011;28834;48.720;9.208;2022-10-17T03:22:12;4.73;;;2.50;;
43224;SDS011;28834;48.720;9.208;2022-10-17T03:24:38;4.00;;;2.60;;
43224;SDS011;28834;48.720;9.208;2022-10-17T03:27:04;6.60;;;3.07;;
43224;SDS011;28834;48.720;9.208;2022-10-17T03:29:29;3.63;;;3.03;;
43224;SDS011;28834;48.720;9.208;2022-10-17T03:31:55;3.10;;;2.57;;
43224;SDS011;28834;48.720;9.208;2022-10-17T03:34:20;3.70;;;2.63;;
43224;SDS011;28834;48.720;9.208;2022-10-17T03:36:46;2.83;;;2.50;;
43224;SDS011;28834;48.720;9.208;2022-10-17T03:39:12;5.97;;;2.60;;
43224;SDS011;28834;48.720;9.208;2022-10-17T03:41:38;2.13;;;1.93;;
43224;SDS011;28834;48.720;9.208;2022-10-17T03:44:03;3.73;;;2.30;;
43224;SDS011;28834;48.720;9.208;2022-10-17T03:46:29;3.30;;;3.00;;
43224;SDS011;28834;48.720;9.208;2022-10-17T03:48:54;2.67;;;2.10;;
43224;SDS011;28834;48.720;9.208;2022-10-17T03:51:20;5.63;;;2.40;;
43224;SDS011;28834;48.720;9.208;2022-10-17T03:53:45;3.63;;;2.57;;
43224;SDS011;28834;48.720;9.208;2022-10-17T03:56:12;3.53;;;2.50;;
43224;SDS011;28834;48.720;9.208;2022-10-17T03:58:39;4.13;;;2.60;;
43224;SDS011;28834;48.720;9.208;2022-10-17T04:01:05;2.40;;;2.20;;
43224;SDS011;28834;48.720;9.208;2022-10-17T04:03:32;3.80;;;2.40;;
43224;SDS011;28834;48.720;9.208;2022-10-17T04:05:58;5.73;;;2.70;;
43224;SDS011;28834;48.720;9.208;2022-10-17T04:08:25;3.80;;;3.07;;
43224;SDS011;28834;48.720;9.208;2022-10-17T04:10:51;2.60;;;2.20;;
43224;SDS011;28834;48.720;9.208;2022-10-17T04:13:17;5.73;;;2.80;;
43224;SDS011;28834;48.720;9.208;2022-10-17T04:15:52;4.87;;;2.93;;
43224;SDS011;28834;48.720;9.208;2022-10-17T04:18:19;2.60;;;2.40;;
43224;SDS011;28834;48.720;9.208;2022-10-17T04:20:44;2.83;;;2.53;;
43224;SDS011;28834;48.720;9.208;2022-10-17T04:23:10;4.13;;;3.10;;
43224;SDS011;28834;48.720;9.208;2022-10-17T04:25:35;2.80;;;2.57;;
43224;SDS011;28834;48.720;9.208;2022-10-17T04:28:01;4.10;;;2.70;;
43224;SDS011;28834;48.720;9.208;2022-10-17T04:30:26;5.10;;;2.73;;
43224;SDS011;28834;48.720;9.208;2022-10-17T04:32:52;4.37;;;3.00;;
43224;SDS011;28834;48.720;9.208;2022-10-17T04:35:17;4.00;;;2.60;;
43224;SDS011;28834;48.720;9.208;2022-10-17T04:37:43;12.53;;;3.33;;
43224;SDS011;28834;48.720;9.208;2022-10-17T04:40:08;7.60;;;2.90;;
43224;SDS011;28834;48.720;9.208;2022-10-17T04:42:34;5.33;;;2.50;;
43224;SDS011;28834;48.720;9.208;2022-10-17T04:45:00;2.93;;;2.73;;
43224;SDS011;28834;48.720;9.208;2022-10-17T04:47:25;3.57;;;2.57;;
43224;SDS011;28834;48.720;9.208;2022-10-17T04:49:51;3.83;;;2.90;;
43224;SDS011;28834;48.720;9.208;2022-10-17T04:52:16;4.43;;;2.70;;
43224;SDS011;28834;48.720;9.208;2022-10-17T04:54:42;2.70;;;2.50;;
43224;SDS011;28834;48.720;9.208;2022-10-17T04:57:08;2.60;;;2.40;;
43224;SDS011;28834;48.720;9.208;2022-10-17T04:59:33;3.37;;;3.07;;
43224;SDS011;28834;48.720;9.208;2022-10-17T05:01:59;3.60;;;2.40;;
43224;SDS011;28834;48.720;9.208;2022-10-17T05:04:24;3.23;;;2.50;;
43224;SDS011;28834;48.720;9.208;2022-10-17T05:06:51;3.33;;;3.03;;
43224;SDS011;28834;48.720;9.208;2022-10-17T05:09:16;3.60;;;3.23;;
43224;SDS011;28834;48.720;9.208;2022-10-17T05:11:42;6.83;;;2.70;;
43224;SDS011;28834;48.720;9.208;2022-10-17T05:14:08;4.73;;;3.03;;
43224;SDS011;28834;48.720;9.208;2022-10-17T05:16:33;6.77;;;3.13;;
43224;SDS011;28834;48.720;9.208;2022-10-17T05:18:59;3.37;;;3.07;;
43224;SDS011;28834;48.720;9.208;2022-10-17T05:21:25;7.43;;;3.23;;
43224;SDS011;28834;48.720;9.208;2022-10-17T05:23:52;4.23;;;2.97;;
43224;SDS011;28834;48.720;9.208;2022-10-17T05:26:18;4.27;;;3.03;;
43224;SDS011;28834;48.720;9.208;2022-10-17T05:28:44;4.63;;;2.80;;
43224;SDS011;28834;48.720;9.208;2022-10-17T05:31:10;7.23;;;3.70;;
43224;SDS011;28834;48.720;9.208;2022-10-17T05:33:36;4.10;;;3.70;;
43224;SDS011;28834;48.720;9.208;2022-10-17T05:36:02;4.03;;;3.60;;
43224;SDS011;28834;48.720;9.208;2022-10-17T05:38:28;5.33;;;3.73;;
43224;SDS011;28834;48.720;9.208;2022-10-17T05:41:00;3.60;;;3.30;;
43224;SDS011;28834;48.720;9.208;2022-10-17T05:43:28;5.00;;;3.50;;
43224;SDS011;28834;48.720;9.208;2022-10-17T05:45:54;3.90;;;3.30;;
43224;SDS011;28834;48.720;9.208;2022-10-17T05:48:20;4.03;;;3.37;;
43224;SDS011;28834;48.720;9.208;2022-10-17T05:50:46;3.80;;;3.13;;
43224;SDS011;28834;48.720;9.208;2022-10-17T05:53:12;4.00;;;3.00;;
43224;SDS011;28834;48.720;9.208;2022-10-17T05:55:38;3.20;;;2.90;;
43224;SDS011;28834;48.720;9.208;2022-10-17T05:58:04;5.97;;;3.57;;
43224;SDS011;28834;48.720;9.208;2022-10-17T06:00:29;5.23;;;3.33;;
43224;SDS011;28834;48.720;9.208;2022-10-17T06:02:55;9.53;;;4.40;;
43224;SDS011;28834;48.720;9.208;2022-10-17T06:05:21;5.80;;;3.67;;
43224;SDS011;28834;48.720;9.208;2022-10-17T06:07:46;5.93;;;3.83;;
43224;SDS011;28834;48.720;9.208;2022-10-17T06:10:14;5.57;;;3.90;;
43224;SDS011;28834;48.720;9.208;2022-10-17T06:12:41;7.57;;;4.00;;
43224;SDS011;28834;48.720;9.208;2022-10-17T06:15:07;7.00;;;3.90;;
43224;SDS011;28834;48.720;9.208;2022-10-17T06:17:33;5.13;;;3.03;;
43224;SDS011;28834;48.720;9.208;2022-10-17T06:19:59;3.93;;;3.23;;
43224;SDS011;28834;48.720;9.208;2022-10-17T06:22:25;3.83;;;3.30;;
43224;SDS011;28834;48.720;9.208;2022-10-17T06:24:50;4.00;;;3.60;;
43224;SDS011;28834;48.720;9.208;2022-10-17T06:27:17;5.57;;;3.60;;
43224;SDS011;28834;48.720;9.208;2022-10-17T06:29:44;5.17;;;4.10;;
43224;SDS011;28834;48.720;9.208;2022-10-17T06:32:10;3.93;;;3.50;;
43224;SDS011;28834;48.720;9.208;2022-10-17T06:34:35;4.20;;;3.20;;
43224;SDS011;28834;48.720;9.208;2022-10-17T06:37:01;5.13;;;3.60;;
43224;SDS011;28834;48.720;9.208;2022-10-17T06:39:26;4.23;;;3.73;;
43224;SDS011;28834;48.720;9.208;2022-10-17T06:41:57;6.73;;;3.73;;
43224;SDS011;28834;48.720;9.208;2022-10-17T06:44:24;5.50;;;3.63;;
43224;SDS011;28834;48.720;9.208;2022-10-17T06:46:54;5.10;;;3.90;;
43224;SDS011;28834;48.720;9.208;2022-10-17T06:49:20;4.53;;;3.57;;
43224;SDS011;28834;48.720;9.208;2022-10-17T06:51:45;4.60;;;3.23;;
43224;SDS011;28834;48.720;9.208;2022-10-17T06:54:11;4.63;;;3.60;;
43224;SDS011;28834;48.720;9.208;2022-10-17T06:56:36;6.97;;;3.67;;
43224;SDS011;28834;48.720;9.208;2022-10-17T06:59:02;4.67;;;3.43;;
43224;SDS011;28834;48.720;9.208;2022-10-17T07:01:29;10.17;;;6.10;;
43224;SDS011;28834;48.720;9.208;2022-10-17T07:03:55;6.20;;;4.10;;
43224;SDS011;28834;48.720;9.208;2022-10-17T07:06:21;9.33;;;4.73;;
43224;SDS011;28834;48.720;9.208;2022-10-17T07:08:48;11.60;;;4.10;;
43224;SDS011;28834;48.720;9.208;2022-10-17T07:11:15;11.07;;;3.97;;
43224;SDS011;28834;48.720;9.208;2022-10-17T07:13:42;8.10;;;3.50;;
43224;SDS011;28834;48.720;9.208;2022-10-17T07:16:08;6.83;;;2.67;;
43224;SDS011;28834;48.720;9.208;2022-10-17T07:18:34;4.00;;;2.37;;
43224;SDS011;28834;48.720;9.208;2022-10-17T07:21:00;4.77;;;2.60;;
43224;SDS011;28834;48.720;9.208;2022-10-17T07:23:25;6.27;;;2.80;;
43224;SDS011;28834;48.720;9.208;2022-10-17T07:25:51;5.03;;;2.40;;
43224;SDS011;28834;48.720;9.208;2022-10-17T07:28:17;5.50;;;2.50;;
43224;SDS011;28834;48.720;9.208;2022-10-17T07:30:43;5.73;;;2.73;;
43224;SDS011;28834;48.720;9.208;2022-10-17T07:33:09;6.37;;;2.83;;
43224;SDS011;28834;48.720;9.208;2022-10-17T07:35:36;6.20;;;2.97;;
43224;SDS011;28834;48.720;9.208;2022-10-17T07:38:04;4.80;;;2.60;;
43224;SDS011;28834;48.720;9.208;2022-10-17T07:40:30;11.10;;;2.70;;
43224;SDS011;28834;48.720;9.208;2022-10-17T07:42:56;6.30;;;3.00;;
43224;SDS011;28834;48.720;9.208;2022-10-17T07:45:21;6.47;;;2.70;;
43224;SDS011;28834;48.720;9.208;2022-10-17T07:47:47;10.67;;;2.80;;
43224;SDS011;28834;48.720;9.208;2022-10-17T07:50:13;13.30;;;3.63;;
43224;SDS011;28834;48.720;9.208;2022-10-17T07:52:39;7.17;;;2.63;;
43224;SDS011;28834;48.720;9.208;2022-10-17T07:55:07;3.43;;;2.20;;
43224;SDS011;28834;48.720;9.208;2022-10-17T07:57:33;5.73;;;2.00;;
43224;SDS011;28834;48.720;9.208;2022-10-17T07:59:58;4.63;;;2.30;;
43224;SDS011;28834;48.720;9.208;2022-10-17T08:02:24;7.80;;;3.03;;
43224;SDS011;28834;48.720;9.208;2022-10-17T08:04:51;6.80;;;2.47;;
43224;SDS011;28834;48.720;9.208;2022-10-17T08:07:17;3.07;;;2.20;;
43224;SDS011;28834;48.720;9.208;2022-10-17T08:09:43;4.13;;;2.60;;
43224;SDS011;28834;48.720;9.208;2022-10-17T08:12:10;3.90;;;1.77;;
43224;SDS011;28834;48.720;9.208;2022-10-17T08:14:36;4.63;;;2.17;;
43224;SDS011;28834;48.720;9.208;2022-10-17T08:17:03;6.80;;;2.40;;
43224;SDS011;28834;48.720;9.208;2022-10-17T08:19:28;4.10;;;2.57;;
43224;SDS011;28834;48.720;9.208;2022-10-17T08:21:54;8.63;;;2.93;;
43224;SDS011;28834;48.720;9.208;2022-10-17T08:24:19;6.23;;;2.70;;
43224;SDS011;28834;48.720;9.208;2022-10-17T08:26:45;4.37;;;2.70;;
43224;SDS011;28834;48.720;9.208;2022-10-17T08:29:14;11.50;;;3.10;;
43224;SDS011;28834;48.720;9.208;2022-10-17T08:31:40;9.13;;;2.87;;
43224;SDS011;28834;48.720;9.208;2022-10-17T08:34:06;6.23;;;2.60;;
43224;SDS011;28834;48.720;9.208;2022-10-17T08:36:32;7.87;;;2.90;;
43224;SDS011;28834;48.720;9.208;2022-10-17T08:38:57;8.57;;;2.50;;
43224;SDS011;28834;48.720;9.208;2022-10-17T08:46:46;5.33;;;2.40;;
43224;SDS011;28834;48.720;9.208;2022-10-17T08:55:16;4.50;;;2.50;;
43224;SDS011;28834;48.720;9.208;2022-10-17T08:57:46;8.20;;;2.50;;
43224;SDS011;28834;48.720;9.208;2022-10-17T09:00:16;3.30;;;2.00;;
43224;SDS011;28834;48.720;9.208;2022-10-17T09:20:02;3.83;;;2.10;;
43224;SDS011;28834;48.720;9.208;2022-10-17T09:25:19;2.63;;;1.80;;
43224;SDS011;28834;48.720;9.208;2022-10-17T09:33:14;5.60;;;2.10;;
43224;SDS011;28834;48.720;9.208;2022-10-17T09:35:41;4.10;;;2.00;;
43224;SDS011;28834;48.720;9.208;2022-10-17T09:38:20;4.10;;;2.10;;
43224;SDS011;28834;48.720;9.208;2022-10-17T09:40:58;3.17;;;1.83;;
43224;SDS011;28834;48.720;9.208;2022-10-17T09:43:25;3.93;;;2.17;;
43224;SDS011;28834;48.720;9.208;2022-10-17T09:45:57;4.63;;;2.07;;
43224;SDS011;28834;48.720;9.208;2022-10-17T09:48:25;4.07;;;1.90;;
43224;SDS011;28834;48.720;9.208;2022-10-17T09:50:59;3.60;;;2.50;;
43224;SDS011;28834;48.720;9.208;2022-10-17T09:53:27;4.33;;;2.00;;
43224;SDS011;28834;48.720;9.208;2022-10-17T09:56:00;3.97;;;2.20;;
43224;SDS011;28834;48.720;9.208;2022-10-17T09:58:46;5.53;;;2.20;;
43224;SDS011;28834;48.720;9.208;2022-10-17T10:06:36;4.63;;;2.27;;
43224;SDS011;28834;48.720;9.208;2022-10-17T10:09:03;4.33;;;2.47;;
43224;SDS011;28834;48.720;9.208;2022-10-17T10:11:51;6.03;;;1.90;;
43224;SDS011;28834;48.720;9.208;2022-10-17T10:14:22;3.30;;;2.00;;
43224;SDS011;28834;48.720;9.208;2022-10-17T10:16:52;5.30;;;1.83;;
43224;SDS011;28834;48.720;9.208;2022-10-17T10:19:29;5.23;;;2.00;;
43224;SDS011;28834;48.720;9.208;2022-10-17T10:22:18;4.40;;;2.00;;
43224;SDS011;28834;48.720;9.208;2022-10-17T10:24:43;5.20;;;2.00;;
43224;SDS011;28834;48.720;9.208;2022-10-17T10:27:11;3.60;;;1.60;;
43224;SDS011;28834;48.720;9.208;2022-10-17T10:29:48;5.77;;;2.03;;
43224;SDS011;28834;48.720;9.208;2022-10-17T10:34:49;4.20;;;1.60;;
43224;SDS011;28834;48.720;9.208;2022-10-17T10:37:25;3.30;;;1.80;;
43224;SDS011;28834;48.720;9.208;2022-10-17T10:39:54;4.90;;;1.73;;
43224;SDS011;28834;48.720;9.208;2022-10-17T10:42:28;3.33;;;1.70;;
43224;SDS011;28834;48.720;9.208;2022-10-17T10:45:41;2.60;;;1.80;;
43224;SDS011;28834;48.720;9.208;2022-10-17T10:47:56;4.97;;;1.50;;
43224;SDS011;28834;48.720;9.208;2022-10-17T10:53:08;3.17;;;1.77;;
43224;SDS011;28834;48.720;9.208;2022-10-17T10:55:48;4.63;;;1.50;;
43224;SDS011;28834;48.720;9.208;2022-10-17T10:58:39;2.27;;;1.30;;
43224;SDS011;28834;48.720;9.208;2022-10-17T11:01:05;3.13;;;1.73;;
43224;SDS011;28834;48.720;9.208;2022-10-17T11:06:30;5.50;;;1.73;;
43224;SDS011;28834;48.720;9.208;2022-10-17T11:09:05;4.50;;;1.90;;
43224;SDS011;28834;48.720;9.208;2022-10-17T11:11:47;3.67;;;1.80;;
43224;SDS011;28834;48.720;9.208;2022-10-17T11:19:57;3.37;;;1.50;;
43224;SDS011;28834;48.720;9.208;2022-10-17T11:22:29;1.90;;;1.50;;
43224;SDS011;28834;48.720;9.208;2022-10-17T11:24:59;4.90;;;1.40;;
43224;SDS011;28834;48.720;9.208;2022-10-17T11:27:48;4.38;;;1.40;;
43224;SDS011;28834;48.720;9.208;2022-10-17T11:30:14;1.90;;;1.38;;
43224;SDS011;28834;48.720;9.208;2022-10-17T11:35:49;2.47;;;1.00;;
43224;SDS011;28834;48.720;9.208;2022-10-17T11:38:24;2.05;;;1.02;;
43224;SDS011;28834;48.720;9.208;2022-10-17T11:40:52;3.35;;;1.10;;
43224;SDS011;28834;48.720;9.208;2022-10-17T11:45:59;3.60;;;1.00;;
43224;SDS011;28834;48.720;9.208;2022-10-17T11:48:29;3.90;;;1.30;;
43224;SDS011;28834;48.720;9.208;2022-10-17T11:51:03;4.13;;;1.20;;
43224;SDS011;28834;48.720;9.208;2022-10-17T11:53:46;4.30;;;0.90;;
43224;SDS011;28834;48.720;9.208;2022-10-17T11:56:24;4.72;;;1.02;;
43224;SDS011;28834;48.720;9.208;2022-10-17T12:01:58;1.92;;;0.90;;
43224;SDS011;28834;48.720;9.208;2022-10-17T12:04:52;5.15;;;1.55;;
43224;SDS011;28834;48.720;9.208;2022-10-17T12:07:22;2.65;;;0.98;;
43224;SDS011;28834;48.720;9.208;2022-10-17T12:09:58;5.45;;;1.17;;
43224;SDS011;28834;48.720;9.208;2022-10-17T12:12:28;2.65;;;1.17;;
43224;SDS011;28834;48.720;9.208;2022-10-17T12:17:36;2.60;;;1.20;;
43224;SDS011;28834;48.720;9.208;2022-10-17T12:22:52;2.92;;;1.30;;
43224;SDS011;28834;48.720;9.208;2022-10-17T12:25:29;5.20;;;1.42;;
43224;SDS011;28834;48.720;9.208;2022-10-17T12:28:09;4.53;;;1.08;;
43224;SDS011;28834;48.720;9.208;2022-10-17T12:33:29;3.50;;;1.42;;
43224;SDS011;28834;48.720;9.208;2022-10-17T12:36:35;1.75;;;1.17;;
43224;SDS011;28834;48.720;9.208;2022-10-17T12:44:49;3.17;;;1.05;;
43224;SDS011;28834;48.720;9.208;2022-10-17T12:49:49;3.78;;;1.15;;
43224;SDS011;28834;48.720;9.208;2022-10-17T12:52:17;4.80;;;1.67;;
43224;SDS011;28834;48.720;9.208;2022-10-17T12:57:32;4.13;;;1.13;;
43224;SDS011;28834;48.720;9.208;2022-10-17T13:00:28;3.22;;;1.52;;
43224;SDS011;28834;48.720;9.208;2022-10-17T13:03:23;3.40;;;1.13;;
43224;SDS011;28834;48.720;9.208;2022-10-17T13:05:50;2.50;;;1.08;;
43224;SDS011;28834;48.720;9.208;2022-10-17T13:08:20;3.10;;;1.60;;
43224;SDS011;28834;48.720;9.208;2022-10-17T13:11:06;2.58;;;1.20;;
43224;SDS011;28834;48.720;9.208;2022-10-17T13:15:58;2.65;;;1.30;;
43224;SDS011;28834;48.720;9.208;2022-10-17T13:18:24;1.90;;;1.20;;
43224;SDS011;28834;48.720;9.208;2022-10-17T13:20:56;2.72;;;0.80;;
43224;SDS011;28834;48.720;9.208;2022-10-17T13:23:31;1.10;;;0.70;;
43224;SDS011;28834;48.720;9.208;2022-10-17T13:26:02;3.63;;;1.30;;
43224;SDS011;28834;48.720;9.208;2022-10-17T13:28:28;1.42;;;0.93;;
43224;SDS011;28834;48.720;9.208;2022-10-17T13:30:56;2.50;;;0.90;;
43224;SDS011;28834;48.720;9.208;2022-10-17T13:33:33;2.92;;;1.52;;
43224;SDS011;28834;48.720;9.208;2022-10-17T13:36:12;1.30;;;0.88;;
43224;SDS011;28834;48.720;9.208;2022-10-17T13:38:43;2.80;;;1.00;;
43224;SDS011;28834;48.720;9.208;2022-10-17T13:41:12;2.85;;;0.98;;
43224;SDS011;28834;48.720;9.208;2022-10-17T13:43:40;1.63;;;1.05;;
43224;SDS011;28834;48.720;9.208;2022-10-17T13:46:06;4.72;;;1.10;;
43224;SDS011;28834;48.720;9.208;2022-10-17T13:48:40;2.58;;;1.13;;
43224;SDS011;28834;48.720;9.208;2022-10-17T13:51:07;2.65;;;1.42;;
43224;SDS011;28834;48.720;9.208;2022-10-17T13:53:33;2.42;;;1.90;;
43224;SDS011;28834;48.720;9.208;2022-10-17T13:58:53;3.35;;;1.40;;
43224;SDS011;28834;48.720;9.208;2022-10-17T14:01:21;4.78;;;2.35;;
43224;SDS011;28834;48.720;9.208;2022-10-17T14:03:49;2.85;;;1.65;;
43224;SDS011;28834;48.720;9.208;2022-10-17T14:06:21;3.30;;;1.75;;
43224;SDS011;28834;48.720;9.208;2022-10-17T14:11:25;5.60;;;1.80;;
43224;SDS011;28834;48.720;9.208;2022-10-17T14:13:58;7.55;;;2.30;;
43224;SDS011;28834;48.720;9.208;2022-10-17T14:16:25;5.88;;;1.95;;
43224;SDS011;28834;48.720;9.208;2022-10-17T14:18:57;4.93;;;1.75;;
43224;SDS011;28834;48.720;9.208;2022-10-17T14:21:23;4.32;;;1.95;;
43224;SDS011;28834;48.720;9.208;2022-10-17T14:24:13;5.35;;;1.90;;
43224;SDS011;28834;48.720;9.208;2022-10-17T14:26:53;3.33;;;1.90;;
43224;SDS011;28834;48.720;9.208;2022-10-17T14:29:29;1.93;;;1.50;;
43224;SDS011;28834;48.720;9.208;2022-10-17T14:31:57;2.35;;;2.05;;
43224;SDS011;28834;48.720;9.208;2022-10-17T14:34:30;2.38;;;1.50;;
43224;SDS011;28834;48.720;9.208;2022-10-17T14:37:07;5.13;;;1.63;;
43224;SDS011;28834;48.720;9.208;2022-10-17T14:39:35;4.33;;;1.93;;
43224;SDS011;28834;48.720;9.208;2022-10-17T14:42:01;6.97;;;2.20;;
43224;SDS011;28834;48.720;9.208;2022-10-17T14:44:27;3.03;;;2.00;;
43224;SDS011;28834;48.720;9.208;2022-10-17T14:46:56;5.33;;;2.43;;
43224;SDS011;28834;48.720;9.208;2022-10-17T14:49:31;7.27;;;1.87;;
43224;SDS011;28834;48.720;9.208;2022-10-17T14:54:57;2.67;;;1.47;;
43224;SDS011;28834;48.720;9.208;2022-10-17T14:57:42;4.27;;;1.80;;
43224;SDS011;28834;48.720;9.208;2022-10-17T15:00:12;5.23;;;1.70;;
43224;SDS011;28834;48.720;9.208;2022-10-17T15:02:40;5.47;;;1.83;;
43224;SDS011;28834;48.720;9.208;2022-10-17T15:05:05;4.70;;;1.57;;
43224;SDS011;28834;48.720;9.208;2022-10-17T15:07:31;6.33;;;1.47;;
43224;SDS011;28834;48.720;9.208;2022-10-17T15:09:57;3.60;;;1.67;;
43224;SDS011;28834;48.720;9.208;2022-10-17T15:12:23;7.23;;;1.87;;
43224;SDS011;28834;48.720;9.208;2022-10-17T15:14:49;3.10;;;1.57;;
43224;SDS011;28834;48.720;9.208;2022-10-17T15:17:25;5.90;;;1.90;;
43224;SDS011;28834;48.720;9.208;2022-10-17T15:19:53;5.03;;;1.53;;
43224;SDS011;28834;48.720;9.208;2022-10-17T15:22:19;6.37;;;2.13;;
43224;SDS011;28834;48.720;9.208;2022-10-17T15:24:45;2.10;;;1.67;;
43224;SDS011;28834;48.720;9.208;2022-10-17T15:29:41;5.10;;;1.60;;
43224;SDS011;28834;48.720;9.208;2022-10-17T15:32:07;4.70;;;1.70;;
43224;SDS011;28834;48.720;9.208;2022-10-17T15:34:33;2.70;;;1.70;;
43224;SDS011;28834;48.720;9.208;2022-10-17T15:36:58;4.27;;;1.73;;
43224;SDS011;28834;48.720;9.208;2022-10-17T15:39:24;2.73;;;1.63;;
43224;SDS011;28834;48.720;9.208;2022-10-17T15:41:50;4.40;;;1.80;;
43224;SDS011;28834;48.720;9.208;2022-10-17T15:44:15;2.63;;;1.40;;
43224;SDS011;28834;48.720;9.208;2022-10-17T15:46:41;2.03;;;1.40;;
43224;SDS011;28834;48.720;9.208;2022-10-17T15:49:11;1.20;;;1.10;;
43224;SDS011;28834;48.720;9.208;2022-10-17T15:51:38;1.70;;;1.60;;
43224;SDS011;28834;48.720;9.208;2022-10-17T15:54:04;2.03;;;1.67;;
43224;SDS011;28834;48.720;9.208;2022-10-17T15:56:31;2.00;;;1.30;;
43224;SDS011;28834;48.720;9.208;2022-10-17T15:59:00;1.80;;;1.40;;
43224;SDS011;28834;48.720;9.208;2022-10-17T16:01:28;2.50;;;1.37;;
43224;SDS011;28834;48.720;9.208;2022-10-17T16:03:55;2.57;;;1.50;;
43224;SDS011;28834;48.720;9.208;2022-10-17T16:06:21;1.83;;;1.47;;
43224;SDS011;28834;48.720;9.208;2022-10-17T16:08:48;2.40;;;1.60;;
43224;SDS011;28834;48.720;9.208;2022-10-17T16:11:15;2.50;;;1.60;;
43224;SDS011;28834;48.720;9.208;2022-10-17T16:13:51;3.23;;;1.73;;
43224;SDS011;28834;48.720;9.208;2022-10-17T16:16:18;1.63;;;1.50;;
43224;SDS011;28834;48.720;9.208;2022-10-17T16:18:46;2.40;;;1.53;;
43224;SDS011;28834;48.720;9.208;2022-10-17T16:21:12;1.87;;;1.63;;
43224;SDS011;28834;48.720;9.208;2022-10-17T16:23:39;3.70;;;1.50;;
43224;SDS011;28834;48.720;9.208;2022-10-17T16:26:05;3.33;;;1.83;;
43224;SDS011;28834;48.720;9.208;2022-10-17T16:28:32;4.63;;;1.87;;
43224;SDS011;28834;48.720;9.208;2022-10-17T16:30:57;3.07;;;2.07;;
43224;SDS011;28834;48.720;9.208;2022-10-17T16:33:23;3.30;;;2.00;;
43224;SDS011;28834;48.720;9.208;2022-10-17T16:35:48;3.37;;;1.70;;
43224;SDS011;28834;48.720;9.208;2022-10-17T16:38:14;2.57;;;1.87;;
43224;SDS011;28834;48.720;9.208;2022-10-17T16:40:40;9.70;;;4.77;;
43224;SDS011;28834;48.720;9.208;2022-10-17T16:43:06;12.13;;;6.50;;
43224;SDS011;28834;48.720;9.208;2022-10-17T16:45:34;13.70;;;6.10;;
43224;SDS011;28834;48.720;9.208;2022-10-17T16:48:00;8.73;;;5.40;;
43224;SDS011;28834;48.720;9.208;2022-10-17T16:50:26;9.07;;;4.23;;
43224;SDS011;28834;48.720;9.208;2022-10-17T16:52:51;5.77;;;4.43;;
43224;SDS011;28834;48.720;9.208;2022-10-17T16:55:17;4.87;;;2.73;;
43224;SDS011;28834;48.720;9.208;2022-10-17T16:57:43;6.10;;;2.67;;
43224;SDS011;28834;48.720;9.208;2022-10-17T17:00:09;3.50;;;2.10;;
43224;SDS011;28834;48.720;9.208;2022-10-17T17:02:36;2.00;;;1.80;;
43224;SDS011;28834;48.720;9.208;2022-10-17T17:05:02;3.17;;;1.80;;
43224;SDS011;28834;48.720;9.208;2022-10-17T17:07:28;2.20;;;2.00;;
43224;SDS011;28834;48.720;9.208;2022-10-17T17:09:54;3.27;;;2.17;;
43224;SDS011;28834;48.720;9.208;2022-10-17T17:12:20;3.17;;;2.13;;